sensor_id;sensor_type;location;lat;lon;timestamp;P1;durP1;ratioP1;P2;durP2;ratioP2
37895;SDS011;23733;53.254;10.430;2023-07-31T00:00:45;2.23;;;1.20;;
37895;SDS011;23733;53.254;10.430;2023-07-31T00:03:12;3.27;;;1.20;;
37895;SDS011;23733;53.254;10.430;2023-07-31T00:05:38;4.27;;;1.13;;
37895;SDS011;23733;53.254;10.430;2023-07-31T00:08:04;5.90;;;1.30;;
37895;SDS011;23733;53.254;10.430;2023-07-31T00:10:30;3.53;;;1.50;;
37895;SDS011;23733;53.254;10.430;2023-07-31T00:12:57;1.93;;;1.10;;
37895;SDS011;23733;53.254;10.430;2023-07-31T00:15:23;3.07;;;1.23;;
37895;SDS011;23733;53.254;10.430;2023-07-31T00:17:49;2.90;;;1.17;;
37895;SDS011;23733;53.254;10.430;2023-07-31T00:20:16;2.80;;;1.33;;
37895;SDS011;23733;53.254;10.430;2023-07-31T00:22:42;2.33;;;1.37;;
37895;SDS011;23733;53.254;10.430;2023-07-31T00:25:08;5.00;;;1.30;;
37895;SDS011;23733;53.254;10.430;2023-07-31T00:27:34;4.13;;;1.40;;
37895;SDS011;23733;53.254;10.430;2023-07-31T00:30:01;6.10;;;1.50;;
37895;SDS011;23733;53.254;10.430;2023-07-31T00:32:27;3.67;;;1.20;;
37895;SDS011;23733;53.254;10.430;2023-07-31T00:34:53;4.60;;;1.30;;
37895;SDS011;23733;53.254;10.430;2023-07-31T00:37:20;2.77;;;1.27;;
37895;SDS011;23733;53.254;10.430;2023-07-31T00:39:46;3.73;;;1.30;;
37895;SDS011;23733;53.254;10.430;2023-07-31T00:42:12;5.30;;;1.40;;
37895;SDS011;23733;53.254;10.430;2023-07-31T00:44:39;3.30;;;1.37;;
37895;SDS011;23733;53.254;10.430;2023-07-31T00:47:05;4.90;;;1.70;;
37895;SDS011;23733;53.254;10.430;2023-07-31T00:49:31;2.10;;;1.33;;
37895;SDS011;23733;53.254;10.430;2023-07-31T00:51:58;4.23;;;1.63;;
37895;SDS011;23733;53.254;10.430;2023-07-31T00:54:25;5.37;;;1.70;;
37895;SDS011;23733;53.254;10.430;2023-07-31T00:56:52;3.63;;;1.43;;
37895;SDS011;23733;53.254;10.430;2023-07-31T00:59:18;3.77;;;1.50;;
37895;SDS011;23733;53.254;10.430;2023-07-31T01:01:45;4.63;;;1.60;;
37895;SDS011;23733;53.254;10.430;2023-07-31T01:04:11;6.23;;;1.40;;
37895;SDS011;23733;53.254;10.430;2023-07-31T01:09:11;5.57;;;1.50;;
37895;SDS011;23733;53.254;10.430;2023-07-31T01:11:48;5.07;;;1.40;;
37895;SDS011;23733;53.254;10.430;2023-07-31T01:14:17;4.07;;;1.63;;
37895;SDS011;23733;53.254;10.430;2023-07-31T01:16:43;4.43;;;1.60;;
37895;SDS011;23733;53.254;10.430;2023-07-31T01:19:10;5.60;;;1.40;;
37895;SDS011;23733;53.254;10.430;2023-07-31T01:27:10;5.00;;;1.70;;
37895;SDS011;23733;53.254;10.430;2023-07-31T01:29:40;13.10;;;2.17;;
37895;SDS011;23733;53.254;10.430;2023-07-31T01:32:12;6.23;;;1.67;;
37895;SDS011;23733;53.254;10.430;2023-07-31T01:34:40;6.13;;;1.83;;
37895;SDS011;23733;53.254;10.430;2023-07-31T01:37:07;2.57;;;1.53;;
37895;SDS011;23733;53.254;10.430;2023-07-31T01:39:33;7.13;;;1.67;;
37895;SDS011;23733;53.254;10.430;2023-07-31T01:42:00;2.60;;;1.33;;
37895;SDS011;23733;53.254;10.430;2023-07-31T01:44:26;3.77;;;1.30;;
37895;SDS011;23733;53.254;10.430;2023-07-31T01:46:53;5.43;;;1.80;;
37895;SDS011;23733;53.254;10.430;2023-07-31T01:49:19;6.73;;;1.87;;
37895;SDS011;23733;53.254;10.430;2023-07-31T01:51:46;4.33;;;1.93;;
37895;SDS011;23733;53.254;10.430;2023-07-31T01:54:12;5.80;;;1.83;;
37895;SDS011;23733;53.254;10.430;2023-07-31T01:56:38;4.47;;;1.70;;
37895;SDS011;23733;53.254;10.430;2023-07-31T01:59:04;4.37;;;1.70;;
37895;SDS011;23733;53.254;10.430;2023-07-31T02:01:31;6.40;;;2.23;;
37895;SDS011;23733;53.254;10.430;2023-07-31T02:03:57;3.57;;;1.60;;
37895;SDS011;23733;53.254;10.430;2023-07-31T02:06:23;5.40;;;1.97;;
37895;SDS011;23733;53.254;10.430;2023-07-31T02:08:50;4.47;;;1.50;;
37895;SDS011;23733;53.254;10.430;2023-07-31T02:11:16;4.60;;;1.70;;
37895;SDS011;23733;53.254;10.430;2023-07-31T02:13:42;3.23;;;1.50;;
37895;SDS011;23733;53.254;10.430;2023-07-31T02:16:09;6.07;;;2.00;;
37895;SDS011;23733;53.254;10.430;2023-07-31T02:18:35;6.33;;;1.60;;
37895;SDS011;23733;53.254;10.430;2023-07-31T02:21:02;3.17;;;1.70;;
37895;SDS011;23733;53.254;10.430;2023-07-31T02:23:28;6.33;;;2.20;;
37895;SDS011;23733;53.254;10.430;2023-07-31T02:25:54;8.43;;;2.47;;
37895;SDS011;23733;53.254;10.430;2023-07-31T02:28:20;4.20;;;2.37;;
37895;SDS011;23733;53.254;10.430;2023-07-31T02:30:47;4.97;;;2.10;;
37895;SDS011;23733;53.254;10.430;2023-07-31T02:33:14;4.40;;;1.80;;
37895;SDS011;23733;53.254;10.430;2023-07-31T02:35:41;4.00;;;2.10;;
37895;SDS011;23733;53.254;10.430;2023-07-31T02:38:07;6.03;;;2.27;;
37895;SDS011;23733;53.254;10.430;2023-07-31T02:40:33;5.07;;;2.30;;
37895;SDS011;23733;53.254;10.430;2023-07-31T02:43:00;6.37;;;2.30;;
37895;SDS011;23733;53.254;10.430;2023-07-31T02:45:26;3.80;;;2.10;;
37895;SDS011;23733;53.254;10.430;2023-07-31T02:47:52;4.67;;;2.10;;
37895;SDS011;23733;53.254;10.430;2023-07-31T02:50:18;6.50;;;2.53;;
37895;SDS011;23733;53.254;10.430;2023-07-31T02:52:45;4.27;;;2.40;;
37895;SDS011;23733;53.254;10.430;2023-07-31T02:55:11;4.17;;;2.30;;
37895;SDS011;23733;53.254;10.430;2023-07-31T02:57:37;4.83;;;2.60;;
37895;SDS011;23733;53.254;10.430;2023-07-31T03:00:04;6.00;;;2.70;;
37895;SDS011;23733;53.254;10.430;2023-07-31T03:02:32;4.13;;;2.40;;
37895;SDS011;23733;53.254;10.430;2023-07-31T03:04:58;5.17;;;2.90;;
37895;SDS011;23733;53.254;10.430;2023-07-31T03:07:24;3.90;;;2.60;;
37895;SDS011;23733;53.254;10.430;2023-07-31T03:09:50;4.97;;;2.90;;
37895;SDS011;23733;53.254;10.430;2023-07-31T03:12:16;6.60;;;2.53;;
37895;SDS011;23733;53.254;10.430;2023-07-31T03:14:42;4.40;;;2.60;;
37895;SDS011;23733;53.254;10.430;2023-07-31T03:17:08;4.33;;;3.00;;
37895;SDS011;23733;53.254;10.430;2023-07-31T03:19:34;4.63;;;2.70;;
37895;SDS011;23733;53.254;10.430;2023-07-31T03:22:00;8.03;;;2.83;;
37895;SDS011;23733;53.254;10.430;2023-07-31T03:24:26;3.87;;;2.90;;
37895;SDS011;23733;53.254;10.430;2023-07-31T03:26:53;4.53;;;2.47;;
37895;SDS011;23733;53.254;10.430;2023-07-31T03:29:19;6.17;;;2.97;;
37895;SDS011;23733;53.254;10.430;2023-07-31T03:31:45;4.37;;;2.73;;
37895;SDS011;23733;53.254;10.430;2023-07-31T03:34:11;3.70;;;2.77;;
37895;SDS011;23733;53.254;10.430;2023-07-31T03:36:37;3.80;;;2.60;;
37895;SDS011;23733;53.254;10.430;2023-07-31T03:39:03;6.07;;;2.97;;
37895;SDS011;23733;53.254;10.430;2023-07-31T03:41:29;7.20;;;3.50;;
37895;SDS011;23733;53.254;10.430;2023-07-31T03:43:55;6.27;;;2.63;;
37895;SDS011;23733;53.254;10.430;2023-07-31T03:46:22;6.13;;;2.93;;
37895;SDS011;23733;53.254;10.430;2023-07-31T03:48:48;2.77;;;2.40;;
37895;SDS011;23733;53.254;10.430;2023-07-31T03:51:15;6.03;;;2.67;;
37895;SDS011;23733;53.254;10.430;2023-07-31T03:53:42;3.23;;;2.57;;
37895;SDS011;23733;53.254;10.430;2023-07-31T03:56:08;4.97;;;2.60;;
37895;SDS011;23733;53.254;10.430;2023-07-31T03:58:34;3.53;;;2.60;;
37895;SDS011;23733;53.254;10.430;2023-07-31T04:01:02;4.63;;;2.60;;
37895;SDS011;23733;53.254;10.430;2023-07-31T04:03:29;3.23;;;2.43;;
37895;SDS011;23733;53.254;10.430;2023-07-31T04:05:55;5.20;;;2.73;;
37895;SDS011;23733;53.254;10.430;2023-07-31T04:08:22;3.20;;;2.70;;
37895;SDS011;23733;53.254;10.430;2023-07-31T04:10:48;4.33;;;2.90;;
37895;SDS011;23733;53.254;10.430;2023-07-31T04:13:15;3.87;;;2.80;;
37895;SDS011;23733;53.254;10.430;2023-07-31T04:15:41;4.30;;;2.80;;
37895;SDS011;23733;53.254;10.430;2023-07-31T04:18:07;4.50;;;2.90;;
37895;SDS011;23733;53.254;10.430;2023-07-31T04:20:34;3.90;;;2.90;;
37895;SDS011;23733;53.254;10.430;2023-07-31T04:23:00;4.07;;;3.10;;
37895;SDS011;23733;53.254;10.430;2023-07-31T04:25:26;4.37;;;2.73;;
37895;SDS011;23733;53.254;10.430;2023-07-31T04:27:52;3.20;;;2.53;;
37895;SDS011;23733;53.254;10.430;2023-07-31T04:30:19;3.70;;;2.80;;
37895;SDS011;23733;53.254;10.430;2023-07-31T04:32:45;6.33;;;2.90;;
37895;SDS011;23733;53.254;10.430;2023-07-31T04:35:11;4.00;;;2.70;;
37895;SDS011;23733;53.254;10.430;2023-07-31T04:37:38;4.20;;;2.70;;
37895;SDS011;23733;53.254;10.430;2023-07-31T04:40:04;3.33;;;2.40;;
37895;SDS011;23733;53.254;10.430;2023-07-31T04:42:30;3.20;;;2.50;;
37895;SDS011;23733;53.254;10.430;2023-07-31T04:44:57;4.17;;;2.53;;
37895;SDS011;23733;53.254;10.430;2023-07-31T04:47:23;3.50;;;2.90;;
37895;SDS011;23733;53.254;10.430;2023-07-31T04:49:49;4.77;;;2.60;;
37895;SDS011;23733;53.254;10.430;2023-07-31T04:52:16;4.07;;;2.80;;
37895;SDS011;23733;53.254;10.430;2023-07-31T04:54:42;3.47;;;2.40;;
37895;SDS011;23733;53.254;10.430;2023-07-31T04:57:08;3.43;;;2.60;;
37895;SDS011;23733;53.254;10.430;2023-07-31T04:59:34;3.50;;;2.60;;
37895;SDS011;23733;53.254;10.430;2023-07-31T05:02:02;7.47;;;2.70;;
37895;SDS011;23733;53.254;10.430;2023-07-31T05:04:28;4.10;;;2.47;;
37895;SDS011;23733;53.254;10.430;2023-07-31T05:06:54;3.70;;;2.77;;
37895;SDS011;23733;53.254;10.430;2023-07-31T05:09:22;5.40;;;2.60;;
37895;SDS011;23733;53.254;10.430;2023-07-31T05:11:48;3.40;;;2.70;;
37895;SDS011;23733;53.254;10.430;2023-07-31T05:14:14;3.50;;;2.30;;
37895;SDS011;23733;53.254;10.430;2023-07-31T05:16:41;3.80;;;2.70;;
37895;SDS011;23733;53.254;10.430;2023-07-31T05:19:07;4.37;;;2.60;;
37895;SDS011;23733;53.254;10.430;2023-07-31T05:21:33;3.13;;;2.50;;
37895;SDS011;23733;53.254;10.430;2023-07-31T05:24:00;2.83;;;2.40;;
37895;SDS011;23733;53.254;10.430;2023-07-31T05:26:26;4.63;;;2.63;;
37895;SDS011;23733;53.254;10.430;2023-07-31T05:28:52;3.47;;;2.37;;
37895;SDS011;23733;53.254;10.430;2023-07-31T05:31:18;3.33;;;2.07;;
37895;SDS011;23733;53.254;10.430;2023-07-31T05:33:46;3.37;;;2.43;;
37895;SDS011;23733;53.254;10.430;2023-07-31T05:36:12;3.47;;;2.50;;
37895;SDS011;23733;53.254;10.430;2023-07-31T05:38:38;2.73;;;2.17;;
37895;SDS011;23733;53.254;10.430;2023-07-31T05:41:05;2.83;;;2.50;;
37895;SDS011;23733;53.254;10.430;2023-07-31T05:43:31;3.13;;;2.20;;
37895;SDS011;23733;53.254;10.430;2023-07-31T05:45:57;3.67;;;2.70;;
37895;SDS011;23733;53.254;10.430;2023-07-31T05:48:23;2.23;;;2.03;;
37895;SDS011;23733;53.254;10.430;2023-07-31T05:50:50;2.77;;;2.03;;
37895;SDS011;23733;53.254;10.430;2023-07-31T05:53:16;4.30;;;2.20;;
37895;SDS011;23733;53.254;10.430;2023-07-31T05:55:42;2.47;;;1.97;;
37895;SDS011;23733;53.254;10.430;2023-07-31T05:58:09;3.87;;;2.30;;
37895;SDS011;23733;53.254;10.430;2023-07-31T06:00:35;2.80;;;2.10;;
37895;SDS011;23733;53.254;10.430;2023-07-31T06:03:01;2.73;;;1.97;;
37895;SDS011;23733;53.254;10.430;2023-07-31T06:05:28;4.47;;;2.00;;
37895;SDS011;23733;53.254;10.430;2023-07-31T06:07:55;2.43;;;2.00;;
37895;SDS011;23733;53.254;10.430;2023-07-31T06:10:21;2.43;;;1.77;;
37895;SDS011;23733;53.254;10.430;2023-07-31T06:12:48;1.70;;;1.60;;
37895;SDS011;23733;53.254;10.430;2023-07-31T06:15:14;2.10;;;1.80;;
37895;SDS011;23733;53.254;10.430;2023-07-31T06:17:41;2.00;;;1.70;;
37895;SDS011;23733;53.254;10.430;2023-07-31T06:20:08;2.07;;;1.70;;
37895;SDS011;23733;53.254;10.430;2023-07-31T06:22:35;1.90;;;1.57;;
37895;SDS011;23733;53.254;10.430;2023-07-31T06:25:01;4.07;;;1.60;;
37895;SDS011;23733;53.254;10.430;2023-07-31T06:27:28;1.63;;;1.50;;
37895;SDS011;23733;53.254;10.430;2023-07-31T06:29:54;2.30;;;1.60;;
37895;SDS011;23733;53.254;10.430;2023-07-31T06:32:20;1.63;;;1.50;;
37895;SDS011;23733;53.254;10.430;2023-07-31T06:34:47;1.40;;;1.30;;
37895;SDS011;23733;53.254;10.430;2023-07-31T06:37:13;2.30;;;1.30;;
37895;SDS011;23733;53.254;10.430;2023-07-31T06:39:39;1.90;;;1.30;;
37895;SDS011;23733;53.254;10.430;2023-07-31T06:42:06;1.23;;;1.10;;
37895;SDS011;23733;53.254;10.430;2023-07-31T06:44:32;1.37;;;1.23;;
37895;SDS011;23733;53.254;10.430;2023-07-31T06:46:58;1.60;;;1.20;;
37895;SDS011;23733;53.254;10.430;2023-07-31T06:49:25;2.97;;;1.40;;
37895;SDS011;23733;53.254;10.430;2023-07-31T06:51:51;1.57;;;1.20;;
37895;SDS011;23733;53.254;10.430;2023-07-31T06:54:17;1.40;;;1.20;;
37895;SDS011;23733;53.254;10.430;2023-07-31T06:56:43;1.10;;;1.00;;
37895;SDS011;23733;53.254;10.430;2023-07-31T06:59:10;3.97;;;1.40;;
37895;SDS011;23733;53.254;10.430;2023-07-31T07:01:36;1.80;;;1.40;;
37895;SDS011;23733;53.254;10.430;2023-07-31T07:04:02;1.47;;;1.20;;
37895;SDS011;23733;53.254;10.430;2023-07-31T07:06:29;2.20;;;1.10;;
37895;SDS011;23733;53.254;10.430;2023-07-31T07:08:55;1.87;;;1.10;;
37895;SDS011;23733;53.254;10.430;2023-07-31T07:11:21;1.30;;;1.10;;
37895;SDS011;23733;53.254;10.430;2023-07-31T07:13:48;1.20;;;1.10;;
37895;SDS011;23733;53.254;10.430;2023-07-31T07:16:14;1.20;;;1.10;;
37895;SDS011;23733;53.254;10.430;2023-07-31T07:18:41;1.03;;;0.90;;
37895;SDS011;23733;53.254;10.430;2023-07-31T07:21:07;1.60;;;1.00;;
37895;SDS011;23733;53.254;10.430;2023-07-31T07:23:33;1.73;;;1.10;;
37895;SDS011;23733;53.254;10.430;2023-07-31T07:26:00;1.20;;;1.10;;
37895;SDS011;23733;53.254;10.430;2023-07-31T07:28:26;1.10;;;1.00;;
37895;SDS011;23733;53.254;10.430;2023-07-31T07:30:53;1.20;;;1.10;;
37895;SDS011;23733;53.254;10.430;2023-07-31T07:33:20;1.20;;;1.00;;
37895;SDS011;23733;53.254;10.430;2023-07-31T07:35:46;1.13;;;0.80;;
37895;SDS011;23733;53.254;10.430;2023-07-31T07:38:13;1.10;;;1.00;;
37895;SDS011;23733;53.254;10.430;2023-07-31T07:40:40;1.10;;;0.90;;
37895;SDS011;23733;53.254;10.430;2023-07-31T07:43:07;2.17;;;1.00;;
37895;SDS011;23733;53.254;10.430;2023-07-31T07:45:33;0.87;;;0.87;;
37895;SDS011;23733;53.254;10.430;2023-07-31T07:48:00;1.20;;;1.00;;
37895;SDS011;23733;53.254;10.430;2023-07-31T07:50:26;1.10;;;0.93;;
37895;SDS011;23733;53.254;10.430;2023-07-31T07:52:52;2.60;;;0.80;;
37895;SDS011;23733;53.254;10.430;2023-07-31T07:55:18;1.30;;;1.00;;
37895;SDS011;23733;53.254;10.430;2023-07-31T07:57:45;1.10;;;0.80;;
37895;SDS011;23733;53.254;10.430;2023-07-31T08:00:12;1.10;;;1.00;;
37895;SDS011;23733;53.254;10.430;2023-07-31T08:02:38;2.23;;;1.10;;
37895;SDS011;23733;53.254;10.430;2023-07-31T08:05:04;1.17;;;0.90;;
37895;SDS011;23733;53.254;10.430;2023-07-31T08:07:31;1.30;;;0.90;;
37895;SDS011;23733;53.254;10.430;2023-07-31T08:09:57;0.80;;;0.80;;
37895;SDS011;23733;53.254;10.430;2023-07-31T08:12:23;1.60;;;0.80;;
37895;SDS011;23733;53.254;10.430;2023-07-31T08:14:50;0.87;;;0.83;;
37895;SDS011;23733;53.254;10.430;2023-07-31T08:17:16;1.00;;;0.80;;
37895;SDS011;23733;53.254;10.430;2023-07-31T08:19:43;1.67;;;0.80;;
37895;SDS011;23733;53.254;10.430;2023-07-31T08:22:10;0.80;;;0.80;;
37895;SDS011;23733;53.254;10.430;2023-07-31T08:24:36;1.43;;;0.90;;
37895;SDS011;23733;53.254;10.430;2023-07-31T08:27:02;0.80;;;0.77;;
37895;SDS011;23733;53.254;10.430;2023-07-31T08:29:29;1.00;;;0.83;;
37895;SDS011;23733;53.254;10.430;2023-07-31T08:31:55;0.87;;;0.80;;
37895;SDS011;23733;53.254;10.430;2023-07-31T08:34:21;1.00;;;0.90;;
37895;SDS011;23733;53.254;10.430;2023-07-31T08:36:48;1.00;;;0.70;;
37895;SDS011;23733;53.254;10.430;2023-07-31T08:39:14;1.20;;;0.80;;
37895;SDS011;23733;53.254;10.430;2023-07-31T08:41:40;0.70;;;0.60;;
37895;SDS011;23733;53.254;10.430;2023-07-31T08:44:07;0.83;;;0.70;;
37895;SDS011;23733;53.254;10.430;2023-07-31T08:46:33;1.07;;;0.83;;
37895;SDS011;23733;53.254;10.430;2023-07-31T08:49:00;0.60;;;0.60;;
37895;SDS011;23733;53.254;10.430;2023-07-31T08:51:30;1.40;;;1.00;;
37895;SDS011;23733;53.254;10.430;2023-07-31T08:53:56;0.70;;;0.70;;
37895;SDS011;23733;53.254;10.430;2023-07-31T08:56:23;0.77;;;0.67;;
37895;SDS011;23733;53.254;10.430;2023-07-31T08:58:49;1.13;;;0.73;;
37895;SDS011;23733;53.254;10.430;2023-07-31T09:01:16;0.67;;;0.67;;
37895;SDS011;23733;53.254;10.430;2023-07-31T09:03:43;0.50;;;0.50;;
37895;SDS011;23733;53.254;10.430;2023-07-31T09:06:10;0.70;;;0.70;;
37895;SDS011;23733;53.254;10.430;2023-07-31T09:08:36;0.60;;;0.50;;
37895;SDS011;23733;53.254;10.430;2023-07-31T09:11:05;0.50;;;0.50;;
37895;SDS011;23733;53.254;10.430;2023-07-31T09:13:31;0.63;;;0.60;;
37895;SDS011;23733;53.254;10.430;2023-07-31T09:15:58;0.60;;;0.60;;
37895;SDS011;23733;53.254;10.430;2023-07-31T09:18:24;0.70;;;0.70;;
37895;SDS011;23733;53.254;10.430;2023-07-31T09:21:00;1.00;;;0.70;;
37895;SDS011;23733;53.254;10.430;2023-07-31T09:23:45;0.93;;;0.60;;
37895;SDS011;23733;53.254;10.430;2023-07-31T09:28:59;0.93;;;0.50;;
37895;SDS011;23733;53.254;10.430;2023-07-31T09:31:33;1.83;;;0.90;;
37895;SDS011;23733;53.254;10.430;2023-07-31T09:34:06;1.23;;;0.80;;
37895;SDS011;23733;53.254;10.430;2023-07-31T09:36:32;3.00;;;1.40;;
37895;SDS011;23733;53.254;10.430;2023-07-31T09:39:15;2.13;;;1.30;;
37895;SDS011;23733;53.254;10.430;2023-07-31T09:41:43;3.97;;;1.50;;
37895;SDS011;23733;53.254;10.430;2023-07-31T09:44:10;3.87;;;1.97;;
37895;SDS011;23733;53.254;10.430;2023-07-31T09:46:37;4.27;;;2.40;;
37895;SDS011;23733;53.254;10.430;2023-07-31T09:49:04;4.47;;;2.53;;
37895;SDS011;23733;53.254;10.430;2023-07-31T09:51:37;5.27;;;2.60;;
37895;SDS011;23733;53.254;10.430;2023-07-31T09:56:39;4.97;;;3.10;;
37895;SDS011;23733;53.254;10.430;2023-07-31T09:59:08;7.10;;;3.00;;
37895;SDS011;23733;53.254;10.430;2023-07-31T10:01:37;10.83;;;3.53;;
37895;SDS011;23733;53.254;10.430;2023-07-31T10:04:05;8.07;;;3.67;;
37895;SDS011;23733;53.254;10.430;2023-07-31T10:06:33;5.80;;;3.00;;
37895;SDS011;23733;53.254;10.430;2023-07-31T10:09:01;6.57;;;3.00;;
37895;SDS011;23733;53.254;10.430;2023-07-31T10:11:33;9.97;;;3.70;;
37895;SDS011;23733;53.254;10.430;2023-07-31T10:14:11;8.63;;;4.20;;
37895;SDS011;23733;53.254;10.430;2023-07-31T10:16:38;9.23;;;4.23;;
37895;SDS011;23733;53.254;10.430;2023-07-31T10:19:06;7.93;;;4.00;;
37895;SDS011;23733;53.254;10.430;2023-07-31T10:21:33;8.17;;;4.30;;
37895;SDS011;23733;53.254;10.430;2023-07-31T10:24:02;10.37;;;4.03;;
37895;SDS011;23733;53.254;10.430;2023-07-31T10:26:29;12.23;;;4.60;;
37895;SDS011;23733;53.254;10.430;2023-07-31T10:28:56;12.33;;;4.00;;
37895;SDS011;23733;53.254;10.430;2023-07-31T10:31:24;10.97;;;4.70;;
37895;SDS011;23733;53.254;10.430;2023-07-31T10:33:51;7.83;;;4.00;;
37895;SDS011;23733;53.254;10.430;2023-07-31T10:36:18;12.20;;;4.83;;
37895;SDS011;23733;53.254;10.430;2023-07-31T10:38:45;8.20;;;3.53;;
37895;SDS011;23733;53.254;10.430;2023-07-31T10:41:11;8.97;;;4.40;;
37895;SDS011;23733;53.254;10.430;2023-07-31T10:43:38;10.87;;;4.43;;
37895;SDS011;23733;53.254;10.430;2023-07-31T10:46:13;9.70;;;4.40;;
37895;SDS011;23733;53.254;10.430;2023-07-31T10:48:40;13.33;;;4.53;;
37895;SDS011;23733;53.254;10.430;2023-07-31T10:51:08;10.70;;;4.33;;
37895;SDS011;23733;53.254;10.430;2023-07-31T10:53:37;8.30;;;4.23;;
37895;SDS011;23733;53.254;10.430;2023-07-31T10:56:08;9.00;;;4.20;;
37895;SDS011;23733;53.254;10.430;2023-07-31T10:58:34;10.57;;;4.20;;
37895;SDS011;23733;53.254;10.430;2023-07-31T11:01:02;7.20;;;3.53;;
37895;SDS011;23733;53.254;10.430;2023-07-31T11:03:42;11.23;;;3.60;;
37895;SDS011;23733;53.254;10.430;2023-07-31T11:06:08;9.07;;;3.80;;
37895;SDS011;23733;53.254;10.430;2023-07-31T11:08:35;7.93;;;4.00;;
37895;SDS011;23733;53.254;10.430;2023-07-31T11:13:28;6.50;;;3.60;;
37895;SDS011;23733;53.254;10.430;2023-07-31T11:15:55;7.53;;;3.57;;
37895;SDS011;23733;53.254;10.430;2023-07-31T11:18:21;8.70;;;3.40;;
37895;SDS011;23733;53.254;10.430;2023-07-31T11:20:47;7.90;;;3.43;;
37895;SDS011;23733;53.254;10.430;2023-07-31T11:23:15;7.90;;;3.83;;
37895;SDS011;23733;53.254;10.430;2023-07-31T11:25:42;7.67;;;3.80;;
37895;SDS011;23733;53.254;10.430;2023-07-31T11:30:35;6.77;;;2.93;;
37895;SDS011;23733;53.254;10.430;2023-07-31T11:33:02;5.37;;;3.30;;
37895;SDS011;23733;53.254;10.430;2023-07-31T11:35:32;5.93;;;2.93;;
37895;SDS011;23733;53.254;10.430;2023-07-31T11:37:59;5.33;;;2.90;;
37895;SDS011;23733;53.254;10.430;2023-07-31T11:40:26;6.83;;;2.90;;
37895;SDS011;23733;53.254;10.430;2023-07-31T11:42:57;4.70;;;2.90;;
37895;SDS011;23733;53.254;10.430;2023-07-31T11:45:24;5.17;;;2.17;;
37895;SDS011;23733;53.254;10.430;2023-07-31T11:47:52;3.83;;;2.50;;
37895;SDS011;23733;53.254;10.430;2023-07-31T11:50:19;3.97;;;2.73;;
37895;SDS011;23733;53.254;10.430;2023-07-31T11:52:45;5.23;;;2.43;;
37895;SDS011;23733;53.254;10.430;2023-07-31T11:55:13;4.37;;;2.10;;
37895;SDS011;23733;53.254;10.430;2023-07-31T11:57:41;2.67;;;2.07;;
37895;SDS011;23733;53.254;10.430;2023-07-31T12:00:09;3.80;;;2.00;;
37895;SDS011;23733;53.254;10.430;2023-07-31T12:02:36;3.97;;;2.00;;
37895;SDS011;23733;53.254;10.430;2023-07-31T12:05:05;2.70;;;1.60;;
37895;SDS011;23733;53.254;10.430;2023-07-31T12:07:44;2.33;;;1.40;;
37895;SDS011;23733;53.254;10.430;2023-07-31T12:10:11;2.20;;;1.50;;
37895;SDS011;23733;53.254;10.430;2023-07-31T12:12:55;2.00;;;1.63;;
37895;SDS011;23733;53.254;10.430;2023-07-31T12:15:32;3.63;;;1.90;;
37895;SDS011;23733;53.254;10.430;2023-07-31T12:17:59;2.57;;;1.50;;
37895;SDS011;23733;53.254;10.430;2023-07-31T12:20:25;2.37;;;1.60;;
37895;SDS011;23733;53.254;10.430;2023-07-31T12:22:52;2.17;;;1.30;;
37895;SDS011;23733;53.254;10.430;2023-07-31T12:25:18;2.73;;;1.67;;
37895;SDS011;23733;53.254;10.430;2023-07-31T12:27:44;1.30;;;1.13;;
37895;SDS011;23733;53.254;10.430;2023-07-31T12:30:27;1.80;;;1.43;;
37895;SDS011;23733;53.254;10.430;2023-07-31T12:32:53;2.53;;;1.57;;
37895;SDS011;23733;53.254;10.430;2023-07-31T12:35:19;2.03;;;1.30;;
37895;SDS011;23733;53.254;10.430;2023-07-31T12:37:46;1.80;;;1.47;;
37895;SDS011;23733;53.254;10.430;2023-07-31T12:40:12;1.43;;;1.30;;
37895;SDS011;23733;53.254;10.430;2023-07-31T12:42:38;3.57;;;1.37;;
37895;SDS011;23733;53.254;10.430;2023-07-31T12:45:05;2.17;;;1.50;;
37895;SDS011;23733;53.254;10.430;2023-07-31T12:47:31;1.27;;;1.17;;
37895;SDS011;23733;53.254;10.430;2023-07-31T12:49:57;1.87;;;1.20;;
37895;SDS011;23733;53.254;10.430;2023-07-31T12:52:24;2.43;;;1.40;;
37895;SDS011;23733;53.254;10.430;2023-07-31T12:54:50;2.10;;;1.40;;
37895;SDS011;23733;53.254;10.430;2023-07-31T12:57:16;1.40;;;1.27;;
37895;SDS011;23733;53.254;10.430;2023-07-31T12:59:43;1.80;;;1.43;;
37895;SDS011;23733;53.254;10.430;2023-07-31T13:02:09;1.50;;;1.40;;
37895;SDS011;23733;53.254;10.430;2023-07-31T13:04:35;1.63;;;1.30;;
37895;SDS011;23733;53.254;10.430;2023-07-31T13:07:01;2.10;;;1.50;;
37895;SDS011;23733;53.254;10.430;2023-07-31T13:09:28;1.50;;;1.40;;
37895;SDS011;23733;53.254;10.430;2023-07-31T13:11:54;1.43;;;1.30;;
37895;SDS011;23733;53.254;10.430;2023-07-31T13:14:20;1.40;;;1.27;;
37895;SDS011;23733;53.254;10.430;2023-07-31T13:16:47;2.03;;;1.33;;
37895;SDS011;23733;53.254;10.430;2023-07-31T13:19:13;1.93;;;1.40;;
37895;SDS011;23733;53.254;10.430;2023-07-31T13:21:39;2.37;;;1.30;;
37895;SDS011;23733;53.254;10.430;2023-07-31T13:24:06;2.20;;;1.40;;
37895;SDS011;23733;53.254;10.430;2023-07-31T13:26:32;1.50;;;1.40;;
37895;SDS011;23733;53.254;10.430;2023-07-31T13:28:59;2.17;;;1.40;;
37895;SDS011;23733;53.254;10.430;2023-07-31T13:31:25;2.03;;;1.57;;
37895;SDS011;23733;53.254;10.430;2023-07-31T13:33:52;1.83;;;1.37;;
37895;SDS011;23733;53.254;10.430;2023-07-31T13:36:18;1.67;;;1.17;;
37895;SDS011;23733;53.254;10.430;2023-07-31T13:38:45;1.30;;;1.20;;
37895;SDS011;23733;53.254;10.430;2023-07-31T13:41:11;4.73;;;1.37;;
37895;SDS011;23733;53.254;10.430;2023-07-31T13:43:37;1.40;;;1.10;;
37895;SDS011;23733;53.254;10.430;2023-07-31T13:46:04;1.77;;;1.30;;
37895;SDS011;23733;53.254;10.430;2023-07-31T13:48:36;1.70;;;1.10;;
37895;SDS011;23733;53.254;10.430;2023-07-31T13:51:02;1.00;;;0.90;;
37895;SDS011;23733;53.254;10.430;2023-07-31T13:53:28;1.50;;;1.13;;
37895;SDS011;23733;53.254;10.430;2023-07-31T13:55:54;0.90;;;0.80;;
37895;SDS011;23733;53.254;10.430;2023-07-31T13:58:21;1.47;;;1.10;;
37895;SDS011;23733;53.254;10.430;2023-07-31T14:00:47;0.93;;;0.87;;
37895;SDS011;23733;53.254;10.430;2023-07-31T14:03:13;1.43;;;1.03;;
37895;SDS011;23733;53.254;10.430;2023-07-31T14:05:40;2.03;;;1.00;;
37895;SDS011;23733;53.254;10.430;2023-07-31T14:08:06;1.17;;;1.07;;
37895;SDS011;23733;53.254;10.430;2023-07-31T14:10:32;0.80;;;0.80;;
37895;SDS011;23733;53.254;10.430;2023-07-31T14:12:58;1.20;;;1.00;;
37895;SDS011;23733;53.254;10.430;2023-07-31T14:15:25;1.13;;;1.00;;
37895;SDS011;23733;53.254;10.430;2023-07-31T14:17:51;1.20;;;0.87;;
37895;SDS011;23733;53.254;10.430;2023-07-31T14:20:18;0.90;;;0.80;;
37895;SDS011;23733;53.254;10.430;2023-07-31T14:22:44;1.77;;;1.00;;
37895;SDS011;23733;53.254;10.430;2023-07-31T14:25:11;1.40;;;1.07;;
37895;SDS011;23733;53.254;10.430;2023-07-31T14:27:37;3.10;;;1.20;;
37895;SDS011;23733;53.254;10.430;2023-07-31T14:30:04;2.50;;;1.20;;
37895;SDS011;23733;53.254;10.430;2023-07-31T14:32:30;2.40;;;1.17;;
37895;SDS011;23733;53.254;10.430;2023-07-31T14:34:57;2.13;;;1.30;;
37895;SDS011;23733;53.254;10.430;2023-07-31T14:37:25;1.53;;;1.40;;
37895;SDS011;23733;53.254;10.430;2023-07-31T14:39:52;2.23;;;1.30;;
37895;SDS011;23733;53.254;10.430;2023-07-31T14:42:19;1.53;;;1.43;;
37895;SDS011;23733;53.254;10.430;2023-07-31T14:44:45;1.57;;;1.47;;
37895;SDS011;23733;53.254;10.430;2023-07-31T14:47:12;2.27;;;1.30;;
37895;SDS011;23733;53.254;10.430;2023-07-31T14:49:38;2.07;;;1.60;;